sensor_id;sensor_type;location;lat;lon;timestamp;pressure;altitude;pressure_sealevel;temperature;humidity
82668;BME280;72691;51.374;-0.176;2024-02-16T00:00:00;100300.18;;;12.21;60.92
82668;BME280;72691;51.374;-0.176;2024-02-16T00:02:25;100301.14;;;12.31;61.71
82668;BME280;72691;51.374;-0.176;2024-02-16T00:04:50;100306.86;;;11.92;61.40
82668;BME280;72691;51.374;-0.176;2024-02-16T00:07:17;100304.67;;;12.60;59.48
82668;BME280;72691;51.374;-0.176;2024-02-16T00:09:41;100300.24;;;12.53;60.96
82668;BME280;72691;51.374;-0.176;2024-02-16T00:12:07;100294.67;;;12.99;59.25
82668;BME280;72691;51.374;-0.176;2024-02-16T00:14:32;100293.13;;;12.22;61.25
82668;BME280;72691;51.374;-0.176;2024-02-16T00:16:58;100295.77;;;12.87;60.02
82668;BME280;72691;51.374;-0.176;2024-02-16T00:19:23;100296.99;;;11.42;62.78
82668;BME280;72691;51.374;-0.176;2024-02-16T00:21:48;100296.37;;;11.75;62.17
82668;BME280;72691;51.374;-0.176;2024-02-16T00:24:13;100296.02;;;12.14;61.21
82668;BME280;72691;51.374;-0.176;2024-02-16T00:26:38;100297.32;;;12.07;61.97
82668;BME280;72691;51.374;-0.176;2024-02-16T00:29:04;100297.51;;;12.18;62.07
82668;BME280;72691;51.374;-0.176;2024-02-16T00:31:29;100300.00;;;11.48;63.49
82668;BME280;72691;51.374;-0.176;2024-02-16T00:33:54;100298.73;;;11.81;62.77
82668;BME280;72691;51.374;-0.176;2024-02-16T00:36:20;100296.11;;;12.68;60.44
82668;BME280;72691;51.374;-0.176;2024-02-16T00:38:45;100294.91;;;13.41;58.87
82668;BME280;72691;51.374;-0.176;2024-02-16T00:41:18;100288.95;;;12.28;61.45
82668;BME280;72691;51.374;-0.176;2024-02-16T00:43:36;100289.56;;;12.60;61.61
82668;BME280;72691;51.374;-0.176;2024-02-16T00:46:01;100296.20;;;11.34;64.26
82668;BME280;72691;51.374;-0.176;2024-02-16T00:48:26;100297.07;;;12.33;61.14
82668;BME280;72691;51.374;-0.176;2024-02-16T00:50:52;100293.03;;;12.94;59.16
82668;BME280;72691;51.374;-0.176;2024-02-16T00:53:17;100285.28;;;13.03;58.50
82668;BME280;72691;51.374;-0.176;2024-02-16T00:55:42;100284.57;;;13.13;57.79
82668;BME280;72691;51.374;-0.176;2024-02-16T00:58:07;100296.20;;;11.57;62.62
82668;BME280;72691;51.374;-0.176;2024-02-16T01:00:33;100302.83;;;11.73;63.49
82668;BME280;72691;51.374;-0.176;2024-02-16T01:02:58;100309.79;;;13.17;58.73
82668;BME280;72691;51.374;-0.176;2024-02-16T01:05:23;100307.48;;;12.74;59.16
82668;BME280;72691;51.374;-0.176;2024-02-16T01:07:48;100316.86;;;13.26;57.37
82668;BME280;72691;51.374;-0.176;2024-02-16T01:10:13;100317.87;;;12.26;60.87
82668;BME280;72691;51.374;-0.176;2024-02-16T01:12:39;100314.53;;;11.30;63.02
82668;BME280;72691;51.374;-0.176;2024-02-16T01:15:05;100316.33;;;13.55;57.77
82668;BME280;72691;51.374;-0.176;2024-02-16T01:17:29;100321.83;;;11.27;63.71
82668;BME280;72691;51.374;-0.176;2024-02-16T01:19:55;100320.28;;;11.49;63.62
82668;BME280;72691;51.374;-0.176;2024-02-16T01:22:20;100319.68;;;11.49;62.84
82668;BME280;72691;51.374;-0.176;2024-02-16T01:24:45;100327.83;;;11.35;63.38
82668;BME280;72691;51.374;-0.176;2024-02-16T01:27:10;100331.62;;;11.22;64.52
82668;BME280;72691;51.374;-0.176;2024-02-16T01:29:36;100327.34;;;10.74;65.33
82668;BME280;72691;51.374;-0.176;2024-02-16T01:32:02;100327.60;;;11.13;64.42
82668;BME280;72691;51.374;-0.176;2024-02-16T01:34:27;100330.89;;;10.19;67.75
82668;BME280;72691;51.374;-0.176;2024-02-16T01:36:52;100324.98;;;10.79;65.61
82668;BME280;72691;51.374;-0.176;2024-02-16T01:39:17;100323.67;;;12.22;61.05
82668;BME280;72691;51.374;-0.176;2024-02-16T01:41:43;100326.79;;;13.49;58.12
82668;BME280;72691;51.374;-0.176;2024-02-16T01:44:08;100325.91;;;13.27;57.93
82668;BME280;72691;51.374;-0.176;2024-02-16T01:46:34;100323.85;;;13.00;57.97
82668;BME280;72691;51.374;-0.176;2024-02-16T01:49:00;100326.62;;;12.52;59.23
82668;BME280;72691;51.374;-0.176;2024-02-16T01:51:25;100333.74;;;13.27;57.19
82668;BME280;72691;51.374;-0.176;2024-02-16T01:53:50;100340.59;;;13.35;57.07
82668;BME280;72691;51.374;-0.176;2024-02-16T01:56:15;100345.14;;;11.82;60.64
82668;BME280;72691;51.374;-0.176;2024-02-16T01:58:40;100349.92;;;12.26;60.75
82668;BME280;72691;51.374;-0.176;2024-02-16T02:01:06;100340.90;;;12.44;60.34
82668;BME280;72691;51.374;-0.176;2024-02-16T02:03:31;100343.93;;;12.74;59.15
82668;BME280;72691;51.374;-0.176;2024-02-16T02:05:57;100340.22;;;12.29;60.39
82668;BME280;72691;51.374;-0.176;2024-02-16T02:08:22;100348.97;;;11.97;61.60
82668;BME280;72691;51.374;-0.176;2024-02-16T02:10:47;100351.98;;;11.42;63.99
82668;BME280;72691;51.374;-0.176;2024-02-16T02:13:13;100347.13;;;11.83;62.65
82668;BME280;72691;51.374;-0.176;2024-02-16T02:15:38;100355.79;;;11.27;64.54
82668;BME280;72691;51.374;-0.176;2024-02-16T02:18:03;100363.98;;;11.42;63.73
82668;BME280;72691;51.374;-0.176;2024-02-16T02:20:28;100375.12;;;10.12;67.61
82668;BME280;72691;51.374;-0.176;2024-02-16T02:22:53;100372.59;;;11.23;65.82
82668;BME280;72691;51.374;-0.176;2024-02-16T02:25:19;100372.49;;;11.69;64.38
82668;BME280;72691;51.374;-0.176;2024-02-16T02:27:44;100369.54;;;11.31;64.55
82668;BME280;72691;51.374;-0.176;2024-02-16T02:30:10;100372.13;;;11.91;62.63
82668;BME280;72691;51.374;-0.176;2024-02-16T02:32:35;100377.56;;;12.03;63.09
82668;BME280;72691;51.374;-0.176;2024-02-16T02:35:02;100377.93;;;12.11;62.03
82668;BME280;72691;51.374;-0.176;2024-02-16T02:37:26;100389.82;;;12.22;63.16
82668;BME280;72691;51.374;-0.176;2024-02-16T02:39:51;100392.09;;;12.20;61.98
82668;BME280;72691;51.374;-0.176;2024-02-16T02:42:17;100394.78;;;11.78;63.91
82668;BME280;72691;51.374;-0.176;2024-02-16T02:44:42;100394.30;;;11.34;64.91
82668;BME280;72691;51.374;-0.176;2024-02-16T02:47:12;100394.14;;;10.68;66.84
82668;BME280;72691;51.374;-0.176;2024-02-16T02:49:33;100401.60;;;10.57;68.54
82668;BME280;72691;51.374;-0.176;2024-02-16T02:51:59;100398.99;;;11.19;66.15
82668;BME280;72691;51.374;-0.176;2024-02-16T02:54:24;100396.22;;;11.62;64.44
82668;BME280;72691;51.374;-0.176;2024-02-16T02:56:49;100399.90;;;11.33;65.59
82668;BME280;72691;51.374;-0.176;2024-02-16T02:59:14;100406.52;;;9.89;70.27
82668;BME280;72691;51.374;-0.176;2024-02-16T03:01:40;100405.25;;;11.35;65.95
82668;BME280;72691;51.374;-0.176;2024-02-16T03:04:05;100408.06;;;11.54;64.69
82668;BME280;72691;51.374;-0.176;2024-02-16T03:06:30;100412.41;;;11.57;64.71
82668;BME280;72691;51.374;-0.176;2024-02-16T03:08:56;100413.93;;;11.48;64.81
82668;BME280;72691;51.374;-0.176;2024-02-16T03:11:22;100418.82;;;11.68;64.09
82668;BME280;72691;51.374;-0.176;2024-02-16T03:13:46;100424.96;;;12.21;62.85
82668;BME280;72691;51.374;-0.176;2024-02-16T03:16:12;100429.84;;;12.00;62.22
82668;BME280;72691;51.374;-0.176;2024-02-16T03:18:37;100428.36;;;11.86;63.47
82668;BME280;72691;51.374;-0.176;2024-02-16T03:21:02;100428.61;;;11.42;64.81
82668;BME280;72691;51.374;-0.176;2024-02-16T03:23:28;100432.03;;;10.92;66.18
82668;BME280;72691;51.374;-0.176;2024-02-16T03:25:53;100433.11;;;11.34;64.94
82668;BME280;72691;51.374;-0.176;2024-02-16T03:28:18;100437.90;;;10.19;68.06
82668;BME280;72691;51.374;-0.176;2024-02-16T03:30:44;100443.23;;;10.31;69.36
82668;BME280;72691;51.374;-0.176;2024-02-16T03:33:10;100446.45;;;10.48;69.57
82668;BME280;72691;51.374;-0.176;2024-02-16T03:35:35;100440.76;;;10.24;69.13
82668;BME280;72691;51.374;-0.176;2024-02-16T03:38:00;100450.90;;;10.59;68.86
82668;BME280;72691;51.374;-0.176;2024-02-16T03:40:26;100462.73;;;10.57;69.71
82668;BME280;72691;51.374;-0.176;2024-02-16T03:42:51;100468.25;;;10.37;70.62
82668;BME280;72691;51.374;-0.176;2024-02-16T03:45:16;100463.03;;;11.25;67.65
82668;BME280;72691;51.374;-0.176;2024-02-16T03:47:42;100475.17;;;10.32;70.45
82668;BME280;72691;51.374;-0.176;2024-02-16T03:50:08;100489.31;;;11.38;68.21
82668;BME280;72691;51.374;-0.176;2024-02-16T03:52:32;100500.59;;;11.14;68.24
82668;BME280;72691;51.374;-0.176;2024-02-16T03:54:58;100501.51;;;10.90;68.80
82668;BME280;72691;51.374;-0.176;2024-02-16T03:57:23;100490.84;;;10.23;70.32
82668;BME280;72691;51.374;-0.176;2024-02-16T03:59:48;100490.94;;;11.33;67.69
82668;BME280;72691;51.374;-0.176;2024-02-16T04:02:13;100494.72;;;11.87;65.41
82668;BME280;72691;51.374;-0.176;2024-02-16T04:04:38;100500.30;;;13.10;62.54
82668;BME280;72691;51.374;-0.176;2024-02-16T04:07:04;100502.84;;;12.74;63.40
82668;BME280;72691;51.374;-0.176;2024-02-16T04:09:29;100511.07;;;10.27;70.33
82668;BME280;72691;51.374;-0.176;2024-02-16T04:11:55;100514.77;;;10.99;69.22
82668;BME280;72691;51.374;-0.176;2024-02-16T04:14:20;100517.71;;;10.66;69.99
82668;BME280;72691;51.374;-0.176;2024-02-16T04:16:46;100524.59;;;9.63;71.92
82668;BME280;72691;51.374;-0.176;2024-02-16T04:19:11;100524.07;;;10.46;70.71
82668;BME280;72691;51.374;-0.176;2024-02-16T04:21:36;100525.38;;;9.84;73.86
82668;BME280;72691;51.374;-0.176;2024-02-16T04:24:02;100529.12;;;9.54;74.80
82668;BME280;72691;51.374;-0.176;2024-02-16T04:26:27;100535.49;;;9.36;75.47
82668;BME280;72691;51.374;-0.176;2024-02-16T04:28:53;100539.64;;;9.20;77.36
82668;BME280;72691;51.374;-0.176;2024-02-16T04:31:18;100540.99;;;9.53;76.09
82668;BME280;72691;51.374;-0.176;2024-02-16T04:33:43;100550.20;;;10.25;74.24
82668;BME280;72691;51.374;-0.176;2024-02-16T04:36:09;100556.92;;;9.82;74.33
82668;BME280;72691;51.374;-0.176;2024-02-16T04:38:35;100558.64;;;9.45;76.72
82668;BME280;72691;51.374;-0.176;2024-02-16T04:41:00;100564.02;;;10.09;72.45
82668;BME280;72691;51.374;-0.176;2024-02-16T04:43:25;100567.12;;;10.29;71.55
82668;BME280;72691;51.374;-0.176;2024-02-16T04:45:51;100574.38;;;10.30;71.70
82668;BME280;72691;51.374;-0.176;2024-02-16T04:48:16;100579.66;;;10.88;70.71
82668;BME280;72691;51.374;-0.176;2024-02-16T04:50:42;100586.08;;;11.18;70.94
82668;BME280;72691;51.374;-0.176;2024-02-16T04:53:07;100592.93;;;10.14;74.28
82668;BME280;72691;51.374;-0.176;2024-02-16T04:55:32;100594.59;;;9.91;73.73
82668;BME280;72691;51.374;-0.176;2024-02-16T04:57:58;100593.80;;;9.44;76.07
82668;BME280;72691;51.374;-0.176;2024-02-16T05:00:23;100594.18;;;9.64;74.34
82668;BME280;72691;51.374;-0.176;2024-02-16T05:02:50;100595.80;;;10.35;73.59
82668;BME280;72691;51.374;-0.176;2024-02-16T05:05:14;100596.90;;;9.87;73.64
82668;BME280;72691;51.374;-0.176;2024-02-16T05:07:39;100587.40;;;11.35;68.62
82668;BME280;72691;51.374;-0.176;2024-02-16T05:10:08;100584.00;;;10.00;71.28
82668;BME280;72691;51.374;-0.176;2024-02-16T05:12:30;100590.25;;;10.45;70.68
82668;BME280;72691;51.374;-0.176;2024-02-16T05:14:55;100589.34;;;10.93;68.78
82668;BME280;72691;51.374;-0.176;2024-02-16T05:17:21;100588.44;;;12.50;64.76
82668;BME280;72691;51.374;-0.176;2024-02-16T05:19:51;100609.72;;;11.84;65.57
82668;BME280;72691;51.374;-0.176;2024-02-16T05:22:11;100620.51;;;11.13;68.42
82668;BME280;72691;51.374;-0.176;2024-02-16T05:24:38;100630.34;;;10.52;69.41
82668;BME280;72691;51.374;-0.176;2024-02-16T05:27:03;100638.54;;;10.24;71.37
82668;BME280;72691;51.374;-0.176;2024-02-16T05:29:28;100649.39;;;9.48;75.02
82668;BME280;72691;51.374;-0.176;2024-02-16T05:31:53;100664.04;;;8.18;80.55
82668;BME280;72691;51.374;-0.176;2024-02-16T05:34:19;100667.27;;;8.02;82.17
82668;BME280;72691;51.374;-0.176;2024-02-16T05:36:44;100669.38;;;7.93;80.64
82668;BME280;72691;51.374;-0.176;2024-02-16T05:39:09;100673.61;;;8.69;78.24
82668;BME280;72691;51.374;-0.176;2024-02-16T05:41:35;100678.10;;;9.26;76.72
82668;BME280;72691;51.374;-0.176;2024-02-16T05:44:00;100684.26;;;8.94;75.27
82668;BME280;72691;51.374;-0.176;2024-02-16T05:46:26;100693.88;;;9.49;73.59
82668;BME280;72691;51.374;-0.176;2024-02-16T05:48:51;100699.00;;;9.73;73.13
82668;BME280;72691;51.374;-0.176;2024-02-16T05:51:16;100703.94;;;9.27;74.23
82668;BME280;72691;51.374;-0.176;2024-02-16T05:53:42;100706.52;;;9.88;72.33
82668;BME280;72691;51.374;-0.176;2024-02-16T05:56:08;100709.69;;;10.25;70.20
82668;BME280;72691;51.374;-0.176;2024-02-16T05:58:33;100714.99;;;9.87;70.74
82668;BME280;72691;51.374;-0.176;2024-02-16T06:00:58;100712.14;;;9.85;71.90
82668;BME280;72691;51.374;-0.176;2024-02-16T06:03:24;100711.80;;;10.05;70.55
82668;BME280;72691;51.374;-0.176;2024-02-16T06:05:49;100701.86;;;10.44;69.06
82668;BME280;72691;51.374;-0.176;2024-02-16T06:08:14;100701.63;;;10.88;66.32
82668;BME280;72691;51.374;-0.176;2024-02-16T06:10:40;100703.89;;;11.33;66.09
82668;BME280;72691;51.374;-0.176;2024-02-16T06:13:05;100707.91;;;10.15;68.48
82668;BME280;72691;51.374;-0.176;2024-02-16T06:15:31;100715.85;;;10.40;68.33
82668;BME280;72691;51.374;-0.176;2024-02-16T06:17:57;100718.72;;;10.09;69.09
82668;BME280;72691;51.374;-0.176;2024-02-16T06:20:21;100731.21;;;9.99;67.60
82668;BME280;72691;51.374;-0.176;2024-02-16T06:22:47;100742.53;;;9.70;68.65
82668;BME280;72691;51.374;-0.176;2024-02-16T06:25:12;100750.50;;;9.87;68.37
82668;BME280;72691;51.374;-0.176;2024-02-16T06:27:38;100752.90;;;9.53;69.70
82668;BME280;72691;51.374;-0.176;2024-02-16T06:30:04;100755.35;;;9.84;69.30
82668;BME280;72691;51.374;-0.176;2024-02-16T06:32:29;100758.67;;;10.71;67.25
82668;BME280;72691;51.374;-0.176;2024-02-16T06:34:54;100762.89;;;9.12;72.12
82668;BME280;72691;51.374;-0.176;2024-02-16T06:37:19;100763.34;;;8.99;73.55
82668;BME280;72691;51.374;-0.176;2024-02-16T06:39:45;100761.26;;;10.58;67.43
82668;BME280;72691;51.374;-0.176;2024-02-16T06:42:10;100760.24;;;10.97;65.02
82668;BME280;72691;51.374;-0.176;2024-02-16T06:44:36;100763.28;;;10.58;66.67
82668;BME280;72691;51.374;-0.176;2024-02-16T06:47:01;100760.59;;;11.12;63.25
82668;BME280;72691;51.374;-0.176;2024-02-16T06:49:27;100770.09;;;11.50;63.78
82668;BME280;72691;51.374;-0.176;2024-02-16T06:51:52;100777.65;;;11.40;62.18
82668;BME280;72691;51.374;-0.176;2024-02-16T06:54:17;100786.14;;;11.21;63.48
82668;BME280;72691;51.374;-0.176;2024-02-16T06:56:43;100793.65;;;11.20;63.56
82668;BME280;72691;51.374;-0.176;2024-02-16T06:59:08;100802.17;;;9.30;67.72
82668;BME280;72691;51.374;-0.176;2024-02-16T07:01:33;100807.03;;;9.33;70.38
82668;BME280;72691;51.374;-0.176;2024-02-16T07:03:59;100822.34;;;8.82;72.07
82668;BME280;72691;51.374;-0.176;2024-02-16T07:06:25;100833.69;;;8.55;73.06
82668;BME280;72691;51.374;-0.176;2024-02-16T07:08:50;100835.50;;;8.74;72.35
82668;BME280;72691;51.374;-0.176;2024-02-16T07:11:16;100835.35;;;9.52;70.56
82668;BME280;72691;51.374;-0.176;2024-02-16T07:13:41;100842.08;;;9.08;71.76
82668;BME280;72691;51.374;-0.176;2024-02-16T07:16:06;100845.74;;;8.90;71.06
82668;BME280;72691;51.374;-0.176;2024-02-16T07:18:31;100845.22;;;9.88;68.76
82668;BME280;72691;51.374;-0.176;2024-02-16T07:20:57;100852.87;;;9.67;69.58
82668;BME280;72691;51.374;-0.176;2024-02-16T07:23:22;100864.09;;;9.24;70.49
82668;BME280;72691;51.374;-0.176;2024-02-16T07:25:47;100868.68;;;9.11;70.67
82668;BME280;72691;51.374;-0.176;2024-02-16T07:28:12;100875.46;;;8.55;71.83
82668;BME280;72691;51.374;-0.176;2024-02-16T07:30:38;100888.05;;;7.89;73.78
82668;BME280;72691;51.374;-0.176;2024-02-16T07:33:04;100894.44;;;8.26;73.14
82668;BME280;72691;51.374;-0.176;2024-02-16T07:35:29;100901.45;;;8.39;73.73
82668;BME280;72691;51.374;-0.176;2024-02-16T07:37:54;100906.46;;;7.21;77.00
82668;BME280;72691;51.374;-0.176;2024-02-16T07:40:21;100906.67;;;7.86;76.08
82668;BME280;72691;51.374;-0.176;2024-02-16T07:42:45;100915.57;;;7.94;74.85
82668;BME280;72691;51.374;-0.176;2024-02-16T07:45:11;100926.91;;;7.65;75.99
82668;BME280;72691;51.374;-0.176;2024-02-16T07:47:36;100931.40;;;7.64;76.09
82668;BME280;72691;51.374;-0.176;2024-02-16T07:50:02;100933.69;;;7.81;75.11
82668;BME280;72691;51.374;-0.176;2024-02-16T07:52:27;100944.26;;;8.04;75.26
82668;BME280;72691;51.374;-0.176;2024-02-16T07:54:52;100950.20;;;7.74;75.29
82668;BME280;72691;51.374;-0.176;2024-02-16T07:57:18;100960.43;;;8.02;74.58
82668;BME280;72691;51.374;-0.176;2024-02-16T07:59:43;100966.37;;;8.97;71.48
82668;BME280;72691;51.374;-0.176;2024-02-16T08:02:09;100973.86;;;8.29;72.38
82668;BME280;72691;51.374;-0.176;2024-02-16T08:04:35;100978.42;;;8.12;72.84
82668;BME280;72691;51.374;-0.176;2024-02-16T08:07:00;100983.83;;;7.66;74.79
82668;BME280;72691;51.374;-0.176;2024-02-16T08:09:24;100985.67;;;8.70;71.27
82668;BME280;72691;51.374;-0.176;2024-02-16T08:11:50;100999.02;;;7.79;74.93
82668;BME280;72691;51.374;-0.176;2024-02-16T08:14:15;101001.19;;;8.44;72.85
82668;BME280;72691;51.374;-0.176;2024-02-16T08:16:41;100998.73;;;8.67;71.99
82668;BME280;72691;51.374;-0.176;2024-02-16T08:19:06;101005.99;;;8.15;72.10
82668;BME280;72691;51.374;-0.176;2024-02-16T08:21:31;101024.28;;;7.98;72.34
82668;BME280;72691;51.374;-0.176;2024-02-16T08:23:57;101029.63;;;7.24;75.59
82668;BME280;72691;51.374;-0.176;2024-02-16T08:26:22;101030.95;;;7.01;76.92
82668;BME280;72691;51.374;-0.176;2024-02-16T08:28:47;101034.27;;;7.54;74.81
82668;BME280;72691;51.374;-0.176;2024-02-16T08:31:15;101040.51;;;7.92;73.88
82668;BME280;72691;51.374;-0.176;2024-02-16T08:33:38;101048.47;;;7.42;75.07
82668;BME280;72691;51.374;-0.176;2024-02-16T08:36:04;101050.19;;;7.55;74.36
82668;BME280;72691;51.374;-0.176;2024-02-16T08:38:29;101052.86;;;7.11;75.48
82668;BME280;72691;51.374;-0.176;2024-02-16T08:40:54;101055.58;;;7.78;73.53
82668;BME280;72691;51.374;-0.176;2024-02-16T08:43:19;101062.65;;;7.55;75.69
82668;BME280;72691;51.374;-0.176;2024-02-16T08:45:45;101062.62;;;7.51;74.79
82668;BME280;72691;51.374;-0.176;2024-02-16T08:48:10;101063.46;;;7.27;75.27
82668;BME280;72691;51.374;-0.176;2024-02-16T08:50:36;101064.66;;;8.50;71.24
82668;BME280;72691;51.374;-0.176;2024-02-16T08:53:01;101068.61;;;8.12;70.19
82668;BME280;72691;51.374;-0.176;2024-02-16T08:55:26;101065.77;;;7.61;72.78
82668;BME280;72691;51.374;-0.176;2024-02-16T08:57:53;101078.34;;;7.46;74.85
82668;BME280;72691;51.374;-0.176;2024-02-16T09:00:18;101083.21;;;7.13;75.07
82668;BME280;72691;51.374;-0.176;2024-02-16T09:02:42;101084.39;;;8.29;72.19
82668;BME280;72691;51.374;-0.176;2024-02-16T09:05:08;101090.85;;;7.78;72.57
82668;BME280;72691;51.374;-0.176;2024-02-16T09:07:34;101099.22;;;8.14;72.10
82668;BME280;72691;51.374;-0.176;2024-02-16T09:09:59;101105.60;;;8.01;72.09
82668;BME280;72691;51.374;-0.176;2024-02-16T09:12:24;101113.01;;;7.61;74.37
82668;BME280;72691;51.374;-0.176;2024-02-16T09:14:49;101114.38;;;8.83;72.33
82668;BME280;72691;51.374;-0.176;2024-02-16T09:17:15;101117.96;;;8.42;71.20
82668;BME280;72691;51.374;-0.176;2024-02-16T09:19:40;101123.60;;;8.38;71.45
82668;BME280;72691;51.374;-0.176;2024-02-16T09:22:05;101126.82;;;7.62;73.69
82668;BME280;72691;51.374;-0.176;2024-02-16T09:24:31;101129.90;;;8.24;70.93
82668;BME280;72691;51.374;-0.176;2024-02-16T09:26:57;101140.49;;;8.48;70.55
82668;BME280;72691;51.374;-0.176;2024-02-16T09:29:21;101139.32;;;8.33;71.38
82668;BME280;72691;51.374;-0.176;2024-02-16T09:31:49;101145.00;;;8.95;69.69
82668;BME280;72691;51.374;-0.176;2024-02-16T09:34:13;101151.05;;;8.67;70.33
82668;BME280;72691;51.374;-0.176;2024-02-16T09:36:38;101154.01;;;8.48;70.24
82668;BME280;72691;51.374;-0.176;2024-02-16T09:39:03;101162.84;;;8.74;69.74
82668;BME280;72691;51.374;-0.176;2024-02-16T09:41:28;101166.85;;;8.54;70.56
82668;BME280;72691;51.374;-0.176;2024-02-16T09:43:54;101171.14;;;7.08;71.45
82668;BME280;72691;51.374;-0.176;2024-02-16T09:46:21;101176.33;;;8.48;70.31
82668;BME280;72691;51.374;-0.176;2024-02-16T09:48:46;101183.76;;;8.54;69.90
82668;BME280;72691;51.374;-0.176;2024-02-16T09:51:11;101185.47;;;8.58;69.73
82668;BME280;72691;51.374;-0.176;2024-02-16T09:53:35;101191.56;;;9.22;68.28
82668;BME280;72691;51.374;-0.176;2024-02-16T09:56:01;101196.76;;;9.24;67.32
82668;BME280;72691;51.374;-0.176;2024-02-16T09:58:26;101205.66;;;8.50;68.74
82668;BME280;72691;51.374;-0.176;2024-02-16T10:00:53;101210.45;;;9.03;68.27
82668;BME280;72691;51.374;-0.176;2024-02-16T10:03:23;101211.99;;;9.51;65.11
82668;BME280;72691;51.374;-0.176;2024-02-16T10:05:42;101217.61;;;9.41;65.35
82668;BME280;72691;51.374;-0.176;2024-02-16T10:08:11;101227.53;;;8.86;67.64
82668;BME280;72691;51.374;-0.176;2024-02-16T10:10:33;101234.63;;;9.00;67.10
82668;BME280;72691;51.374;-0.176;2024-02-16T10:13:01;101234.13;;;9.78;64.58
82668;BME280;72691;51.374;-0.176;2024-02-16T10:15:24;101238.36;;;9.63;64.13
82668;BME280;72691;51.374;-0.176;2024-02-16T10:17:59;101243.92;;;8.79;67.52
82668;BME280;72691;51.374;-0.176;2024-02-16T10:20:18;101239.60;;;8.89;66.88
82668;BME280;72691;51.374;-0.176;2024-02-16T10:22:41;101244.04;;;9.45;66.79
82668;BME280;72691;51.374;-0.176;2024-02-16T10:25:07;101244.07;;;9.65;64.25
82668;BME280;72691;51.374;-0.176;2024-02-16T10:27:32;101247.33;;;9.64;64.01
82668;BME280;72691;51.374;-0.176;2024-02-16T10:29:57;101252.91;;;8.53;68.08
82668;BME280;72691;51.374;-0.176;2024-02-16T10:32:23;101249.87;;;9.02;66.91
82668;BME280;72691;51.374;-0.176;2024-02-16T10:34:49;101257.10;;;9.24;66.19
82668;BME280;72691;51.374;-0.176;2024-02-16T10:37:15;101254.46;;;9.27;64.19
82668;BME280;72691;51.374;-0.176;2024-02-16T10:39:40;101263.35;;;9.70;65.88
82668;BME280;72691;51.374;-0.176;2024-02-16T10:42:05;101262.48;;;9.75;63.99
82668;BME280;72691;51.374;-0.176;2024-02-16T10:44:30;101260.57;;;9.79;64.46
82668;BME280;72691;51.374;-0.176;2024-02-16T10:46:55;101264.02;;;11.45;59.71
82668;BME280;72691;51.374;-0.176;2024-02-16T10:49:20;101264.14;;;11.70;57.54
82668;BME280;72691;51.374;-0.176;2024-02-16T10:51:49;101270.79;;;10.97;58.87
82668;BME280;72691;51.374;-0.176;2024-02-16T10:54:13;101271.94;;;9.73;60.55
82668;BME280;72691;51.374;-0.176;2024-02-16T10:56:38;101273.78;;;9.23;63.54
82668;BME280;72691;51.374;-0.176;2024-02-16T10:59:03;101281.74;;;8.65;65.03
82668;BME280;72691;51.374;-0.176;2024-02-16T11:01:27;101292.81;;;9.40;62.85
82668;BME280;72691;51.374;-0.176;2024-02-16T11:04:00;101295.51;;;9.52;64.80
82668;BME280;72691;51.374;-0.176;2024-02-16T11:06:18;101302.00;;;9.04;63.12
82668;BME280;72691;51.374;-0.176;2024-02-16T11:08:43;101303.09;;;9.24;63.50
82668;BME280;72691;51.374;-0.176;2024-02-16T11:11:08;101304.08;;;10.93;59.72
82668;BME280;72691;51.374;-0.176;2024-02-16T11:13:34;101301.20;;;11.43;59.03
82668;BME280;72691;51.374;-0.176;2024-02-16T11:16:00;101312.95;;;10.51;60.33
82668;BME280;72691;51.374;-0.176;2024-02-16T11:18:24;101307.90;;;10.04;60.51
82668;BME280;72691;51.374;-0.176;2024-02-16T11:20:50;101315.82;;;9.98;62.23
82668;BME280;72691;51.374;-0.176;2024-02-16T11:23:15;101313.87;;;10.03;61.29
82668;BME280;72691;51.374;-0.176;2024-02-16T11:25:50;101318.08;;;9.53;61.26
82668;BME280;72691;51.374;-0.176;2024-02-16T11:28:06;101316.57;;;9.88;61.74
82668;BME280;72691;51.374;-0.176;2024-02-16T11:30:33;101319.90;;;10.56;60.63
82668;BME280;72691;51.374;-0.176;2024-02-16T11:32:56;101320.99;;;10.66;60.03
82668;BME280;72691;51.374;-0.176;2024-02-16T11:35:22;101322.88;;;11.46;57.99
82668;BME280;72691;51.374;-0.176;2024-02-16T11:37:49;101328.22;;;11.03;58.39
82668;BME280;72691;51.374;-0.176;2024-02-16T11:40:13;101329.50;;;11.03;57.67
82668;BME280;72691;51.374;-0.176;2024-02-16T11:42:38;101335.66;;;11.45;56.36
82668;BME280;72691;51.374;-0.176;2024-02-16T11:45:04;101338.47;;;10.06;59.25
82668;BME280;72691;51.374;-0.176;2024-02-16T11:47:29;101341.09;;;10.53;57.98
82668;BME280;72691;51.374;-0.176;2024-02-16T11:50:02;101341.33;;;10.63;57.56
82668;BME280;72691;51.374;-0.176;2024-02-16T11:52:19;101335.87;;;9.92;58.86
82668;BME280;72691;51.374;-0.176;2024-02-16T11:54:45;101338.76;;;10.88;58.64
82668;BME280;72691;51.374;-0.176;2024-02-16T11:57:10;101337.45;;;11.05;57.46
82668;BME280;72691;51.374;-0.176;2024-02-16T11:59:36;101341.66;;;11.05;57.12
82668;BME280;72691;51.374;-0.176;2024-02-16T12:02:02;101345.21;;;10.47;57.24
82668;BME280;72691;51.374;-0.176;2024-02-16T12:04:29;101352.27;;;10.36;58.23
82668;BME280;72691;51.374;-0.176;2024-02-16T12:06:55;101346.63;;;11.06;57.45
82668;BME280;72691;51.374;-0.176;2024-02-16T12:09:18;101343.65;;;10.63;56.83
82668;BME280;72691;51.374;-0.176;2024-02-16T12:11:43;101344.50;;;10.47;58.71
82668;BME280;72691;51.374;-0.176;2024-02-16T12:14:08;101344.34;;;10.91;56.88
82668;BME280;72691;51.374;-0.176;2024-02-16T12:16:33;101354.03;;;10.82;56.94
82668;BME280;72691;51.374;-0.176;2024-02-16T12:19:03;101347.79;;;10.67;58.26
82668;BME280;72691;51.374;-0.176;2024-02-16T12:21:24;101348.36;;;9.94;59.12
82668;BME280;72691;51.374;-0.176;2024-02-16T12:23:50;101348.37;;;11.60;56.28
82668;BME280;72691;51.374;-0.176;2024-02-16T12:26:15;101347.76;;;12.04;54.96
82668;BME280;72691;51.374;-0.176;2024-02-16T12:28:40;101351.46;;;12.09;53.56
82668;BME280;72691;51.374;-0.176;2024-02-16T12:31:06;101351.84;;;12.07;53.45
82668;BME280;72691;51.374;-0.176;2024-02-16T12:33:31;101349.19;;;11.41;54.38